sensor_id;sensor_type;location;lat;lon;timestamp;P1;durP1;ratioP1;P2;durP2;ratioP2
19339;SDS011;9804;52.350;6.684;2022-09-02T00:01:38;0.93;;;0.50;;
19339;SDS011;9804;52.350;6.684;2022-09-02T00:04:10;3.03;;;0.60;;
19339;SDS011;9804;52.350;6.684;2022-09-02T00:06:38;3.50;;;0.68;;
19339;SDS011;9804;52.350;6.684;2022-09-02T00:09:05;4.15;;;0.63;;
19339;SDS011;9804;52.350;6.684;2022-09-02T00:11:32;2.97;;;0.55;;
19339;SDS011;9804;52.350;6.684;2022-09-02T00:14:00;2.22;;;0.60;;
19339;SDS011;9804;52.350;6.684;2022-09-02T00:16:27;0.88;;;0.43;;
19339;SDS011;9804;52.350;6.684;2022-09-02T00:18:53;2.00;;;0.63;;
19339;SDS011;9804;52.350;6.684;2022-09-02T00:21:20;1.30;;;0.55;;
19339;SDS011;9804;52.350;6.684;2022-09-02T00:23:46;1.98;;;0.57;;
19339;SDS011;9804;52.350;6.684;2022-09-02T00:26:12;1.48;;;0.65;;
19339;SDS011;9804;52.350;6.684;2022-09-02T00:28:39;1.13;;;0.60;;
19339;SDS011;9804;52.350;6.684;2022-09-02T00:31:05;4.47;;;0.57;;
19339;SDS011;9804;52.350;6.684;2022-09-02T00:33:30;1.75;;;0.75;;
19339;SDS011;9804;52.350;6.684;2022-09-02T00:35:59;1.30;;;0.75;;
19339;SDS011;9804;52.350;6.684;2022-09-02T00:38:26;0.80;;;0.50;;
19339;SDS011;9804;52.350;6.684;2022-09-02T00:40:52;4.43;;;1.17;;
19339;SDS011;9804;52.350;6.684;2022-09-02T00:46:07;1.00;;;0.73;;
19339;SDS011;9804;52.350;6.684;2022-09-02T00:48:34;2.33;;;0.63;;
19339;SDS011;9804;52.350;6.684;2022-09-02T00:51:05;1.75;;;0.50;;
19339;SDS011;9804;52.350;6.684;2022-09-02T00:53:32;5.18;;;0.80;;
19339;SDS011;9804;52.350;6.684;2022-09-02T00:55:57;1.65;;;0.88;;
19339;SDS011;9804;52.350;6.684;2022-09-02T00:58:26;1.08;;;0.50;;
19339;SDS011;9804;52.350;6.684;2022-09-02T01:00:54;1.08;;;0.52;;
19339;SDS011;9804;52.350;6.684;2022-09-02T01:03:24;1.52;;;0.38;;
19339;SDS011;9804;52.350;6.684;2022-09-02T01:05:52;2.67;;;0.63;;
19339;SDS011;9804;52.350;6.684;2022-09-02T01:08:24;0.77;;;0.47;;
19339;SDS011;9804;52.350;6.684;2022-09-02T01:10:51;0.52;;;0.40;;
19339;SDS011;9804;52.350;6.684;2022-09-02T01:13:21;0.63;;;0.50;;
19339;SDS011;9804;52.350;6.684;2022-09-02T01:15:57;3.22;;;0.50;;
19339;SDS011;9804;52.350;6.684;2022-09-02T01:18:28;2.58;;;0.65;;
19339;SDS011;9804;52.350;6.684;2022-09-02T01:20:55;2.10;;;0.65;;
19339;SDS011;9804;52.350;6.684;2022-09-02T01:23:23;0.68;;;0.50;;
19339;SDS011;9804;52.350;6.684;2022-09-02T01:25:50;3.65;;;0.80;;
19339;SDS011;9804;52.350;6.684;2022-09-02T01:28:16;3.88;;;0.85;;
19339;SDS011;9804;52.350;6.684;2022-09-02T01:30:47;0.35;;;0.30;;
19339;SDS011;9804;52.350;6.684;2022-09-02T01:33:14;0.95;;;0.52;;
19339;SDS011;9804;52.350;6.684;2022-09-02T01:35:40;1.83;;;0.50;;
19339;SDS011;9804;52.350;6.684;2022-09-02T01:38:06;1.33;;;0.60;;
19339;SDS011;9804;52.350;6.684;2022-09-02T01:40:32;1.15;;;0.70;;
19339;SDS011;9804;52.350;6.684;2022-09-02T01:42:59;0.63;;;0.43;;
19339;SDS011;9804;52.350;6.684;2022-09-02T01:45:32;1.48;;;0.57;;
19339;SDS011;9804;52.350;6.684;2022-09-02T01:47:59;2.60;;;0.40;;
19339;SDS011;9804;52.350;6.684;2022-09-02T01:50:25;0.52;;;0.50;;
19339;SDS011;9804;52.350;6.684;2022-09-02T01:52:50;1.05;;;0.60;;
19339;SDS011;9804;52.350;6.684;2022-09-02T01:55:16;2.13;;;0.50;;
19339;SDS011;9804;52.350;6.684;2022-09-02T01:57:41;2.72;;;0.63;;
19339;SDS011;9804;52.350;6.684;2022-09-02T02:00:08;2.75;;;0.50;;
19339;SDS011;9804;52.350;6.684;2022-09-02T02:02:36;0.82;;;0.40;;
19339;SDS011;9804;52.350;6.684;2022-09-02T02:05:02;1.95;;;0.70;;
19339;SDS011;9804;52.350;6.684;2022-09-02T02:07:27;2.42;;;0.60;;
19339;SDS011;9804;52.350;6.684;2022-09-02T02:09:53;3.55;;;0.73;;
19339;SDS011;9804;52.350;6.684;2022-09-02T02:12:18;1.20;;;0.50;;
19339;SDS011;9804;52.350;6.684;2022-09-02T02:14:44;0.70;;;0.50;;
19339;SDS011;9804;52.350;6.684;2022-09-02T02:17:10;3.00;;;0.68;;
19339;SDS011;9804;52.350;6.684;2022-09-02T02:19:35;1.50;;;0.50;;
19339;SDS011;9804;52.350;6.684;2022-09-02T02:22:01;2.15;;;0.40;;
19339;SDS011;9804;52.350;6.684;2022-09-02T02:24:26;2.47;;;0.50;;
19339;SDS011;9804;52.350;6.684;2022-09-02T02:26:52;4.03;;;0.55;;
19339;SDS011;9804;52.350;6.684;2022-09-02T02:29:17;2.05;;;1.05;;
19339;SDS011;9804;52.350;6.684;2022-09-02T02:31:43;2.35;;;0.52;;
19339;SDS011;9804;52.350;6.684;2022-09-02T02:34:09;1.80;;;0.45;;
19339;SDS011;9804;52.350;6.684;2022-09-02T02:36:36;4.32;;;0.60;;
19339;SDS011;9804;52.350;6.684;2022-09-02T02:39:03;0.65;;;0.50;;
19339;SDS011;9804;52.350;6.684;2022-09-02T02:41:29;0.82;;;0.60;;
19339;SDS011;9804;52.350;6.684;2022-09-02T02:43:55;2.42;;;0.60;;
19339;SDS011;9804;52.350;6.684;2022-09-02T02:46:20;2.10;;;0.82;;
19339;SDS011;9804;52.350;6.684;2022-09-02T02:48:46;1.55;;;0.50;;
19339;SDS011;9804;52.350;6.684;2022-09-02T02:51:11;2.08;;;0.60;;
19339;SDS011;9804;52.350;6.684;2022-09-02T02:53:36;0.55;;;0.50;;
19339;SDS011;9804;52.350;6.684;2022-09-02T02:56:03;4.60;;;0.50;;
19339;SDS011;9804;52.350;6.684;2022-09-02T02:58:29;1.02;;;0.70;;
19339;SDS011;9804;52.350;6.684;2022-09-02T03:00:55;1.98;;;0.70;;
19339;SDS011;9804;52.350;6.684;2022-09-02T03:03:21;2.35;;;0.70;;
19339;SDS011;9804;52.350;6.684;2022-09-02T03:05:47;1.35;;;0.60;;
19339;SDS011;9804;52.350;6.684;2022-09-02T03:08:14;1.02;;;0.50;;
19339;SDS011;9804;52.350;6.684;2022-09-02T03:10:40;3.30;;;0.52;;
19339;SDS011;9804;52.350;6.684;2022-09-02T03:13:08;2.70;;;0.70;;
19339;SDS011;9804;52.350;6.684;2022-09-02T03:15:35;3.58;;;0.60;;
19339;SDS011;9804;52.350;6.684;2022-09-02T03:18:02;2.55;;;0.90;;
19339;SDS011;9804;52.350;6.684;2022-09-02T03:20:27;3.15;;;0.52;;
19339;SDS011;9804;52.350;6.684;2022-09-02T03:22:53;1.70;;;0.70;;
19339;SDS011;9804;52.350;6.684;2022-09-02T03:25:20;3.35;;;0.70;;
19339;SDS011;9804;52.350;6.684;2022-09-02T03:27:46;1.85;;;0.50;;
19339;SDS011;9804;52.350;6.684;2022-09-02T03:30:14;2.05;;;0.80;;
19339;SDS011;9804;52.350;6.684;2022-09-02T03:32:41;6.13;;;0.85;;
19339;SDS011;9804;52.350;6.684;2022-09-02T03:35:08;1.05;;;0.77;;
19339;SDS011;9804;52.350;6.684;2022-09-02T03:37:35;1.00;;;0.60;;
19339;SDS011;9804;52.350;6.684;2022-09-02T03:40:02;2.25;;;0.55;;
19339;SDS011;9804;52.350;6.684;2022-09-02T03:42:29;5.80;;;0.80;;
19339;SDS011;9804;52.350;6.684;2022-09-02T03:44:54;2.38;;;0.60;;
19339;SDS011;9804;52.350;6.684;2022-09-02T03:47:20;4.13;;;0.82;;
19339;SDS011;9804;52.350;6.684;2022-09-02T03:49:47;1.90;;;0.60;;
19339;SDS011;9804;52.350;6.684;2022-09-02T03:52:13;3.03;;;0.70;;
19339;SDS011;9804;52.350;6.684;2022-09-02T03:54:38;2.63;;;0.55;;
19339;SDS011;9804;52.350;6.684;2022-09-02T03:57:04;3.05;;;0.70;;
19339;SDS011;9804;52.350;6.684;2022-09-02T03:59:29;1.30;;;0.60;;
19339;SDS011;9804;52.350;6.684;2022-09-02T04:01:54;2.80;;;0.70;;
19339;SDS011;9804;52.350;6.684;2022-09-02T04:04:20;2.22;;;0.60;;
19339;SDS011;9804;52.350;6.684;2022-09-02T04:06:45;1.23;;;0.40;;
19339;SDS011;9804;52.350;6.684;2022-09-02T04:09:11;1.00;;;0.57;;
19339;SDS011;9804;52.350;6.684;2022-09-02T04:11:36;2.88;;;0.57;;
19339;SDS011;9804;52.350;6.684;2022-09-02T04:14:06;2.15;;;0.63;;
19339;SDS011;9804;52.350;6.684;2022-09-02T04:16:32;2.38;;;0.85;;
19339;SDS011;9804;52.350;6.684;2022-09-02T04:18:58;4.25;;;0.80;;
19339;SDS011;9804;52.350;6.684;2022-09-02T04:21:25;1.75;;;0.88;;
19339;SDS011;9804;52.350;6.684;2022-09-02T04:23:51;0.60;;;0.45;;
19339;SDS011;9804;52.350;6.684;2022-09-02T04:26:17;0.95;;;0.50;;
19339;SDS011;9804;52.350;6.684;2022-09-02T04:28:43;3.05;;;0.75;;
19339;SDS011;9804;52.350;6.684;2022-09-02T04:31:10;0.68;;;0.63;;
19339;SDS011;9804;52.350;6.684;2022-09-02T04:33:36;0.77;;;0.60;;
19339;SDS011;9804;52.350;6.684;2022-09-02T04:36:04;0.82;;;0.70;;
19339;SDS011;9804;52.350;6.684;2022-09-02T04:38:30;3.05;;;0.65;;
19339;SDS011;9804;52.350;6.684;2022-09-02T04:40:56;2.15;;;0.80;;
19339;SDS011;9804;52.350;6.684;2022-09-02T04:43:22;4.20;;;0.88;;
19339;SDS011;9804;52.350;6.684;2022-09-02T04:45:48;2.17;;;0.88;;
19339;SDS011;9804;52.350;6.684;2022-09-02T04:48:13;3.05;;;0.68;;
19339;SDS011;9804;52.350;6.684;2022-09-02T04:50:39;1.73;;;0.55;;
19339;SDS011;9804;52.350;6.684;2022-09-02T04:53:05;1.13;;;0.80;;
19339;SDS011;9804;52.350;6.684;2022-09-02T04:55:31;1.33;;;0.75;;
19339;SDS011;9804;52.350;6.684;2022-09-02T04:57:57;5.50;;;0.80;;
19339;SDS011;9804;52.350;6.684;2022-09-02T05:00:23;2.75;;;0.70;;
19339;SDS011;9804;52.350;6.684;2022-09-02T05:02:49;3.22;;;0.50;;
19339;SDS011;9804;52.350;6.684;2022-09-02T05:05:16;4.68;;;0.85;;
19339;SDS011;9804;52.350;6.684;2022-09-02T05:07:42;2.25;;;0.90;;
19339;SDS011;9804;52.350;6.684;2022-09-02T05:10:07;1.73;;;0.93;;
19339;SDS011;9804;52.350;6.684;2022-09-02T05:12:33;4.85;;;1.02;;
19339;SDS011;9804;52.350;6.684;2022-09-02T05:15:00;1.13;;;0.85;;
19339;SDS011;9804;52.350;6.684;2022-09-02T05:17:26;3.03;;;0.82;;
19339;SDS011;9804;52.350;6.684;2022-09-02T05:19:52;2.85;;;0.75;;
19339;SDS011;9804;52.350;6.684;2022-09-02T05:22:18;2.00;;;1.08;;
19339;SDS011;9804;52.350;6.684;2022-09-02T05:24:44;2.63;;;0.80;;
19339;SDS011;9804;52.350;6.684;2022-09-02T05:27:10;3.70;;;0.80;;
19339;SDS011;9804;52.350;6.684;2022-09-02T05:29:36;3.97;;;0.68;;
19339;SDS011;9804;52.350;6.684;2022-09-02T05:32:02;2.53;;;1.00;;
19339;SDS011;9804;52.350;6.684;2022-09-02T05:34:28;2.25;;;0.70;;
19339;SDS011;9804;52.350;6.684;2022-09-02T05:36:54;5.95;;;0.70;;
19339;SDS011;9804;52.350;6.684;2022-09-02T05:39:19;3.13;;;0.73;;
19339;SDS011;9804;52.350;6.684;2022-09-02T05:41:44;3.88;;;0.85;;
19339;SDS011;9804;52.350;6.684;2022-09-02T05:44:10;1.23;;;0.57;;
19339;SDS011;9804;52.350;6.684;2022-09-02T05:46:36;3.45;;;0.82;;
19339;SDS011;9804;52.350;6.684;2022-09-02T05:49:01;2.00;;;0.70;;
19339;SDS011;9804;52.350;6.684;2022-09-02T05:51:41;4.72;;;0.77;;
19339;SDS011;9804;52.350;6.684;2022-09-02T05:54:10;2.00;;;0.70;;
19339;SDS011;9804;52.350;6.684;2022-09-02T05:56:42;2.85;;;0.95;;
19339;SDS011;9804;52.350;6.684;2022-09-02T05:59:08;3.72;;;1.05;;
19339;SDS011;9804;52.350;6.684;2022-09-02T06:01:34;0.68;;;0.52;;
19339;SDS011;9804;52.350;6.684;2022-09-02T06:04:00;3.65;;;0.95;;
19339;SDS011;9804;52.350;6.684;2022-09-02T06:06:27;2.70;;;0.90;;
19339;SDS011;9804;52.350;6.684;2022-09-02T06:08:54;4.78;;;1.00;;
19339;SDS011;9804;52.350;6.684;2022-09-02T06:11:19;6.03;;;0.90;;
19339;SDS011;9804;52.350;6.684;2022-09-02T06:13:46;2.85;;;0.70;;
19339;SDS011;9804;52.350;6.684;2022-09-02T06:16:14;2.03;;;0.80;;
19339;SDS011;9804;52.350;6.684;2022-09-02T06:18:40;4.20;;;0.80;;
19339;SDS011;9804;52.350;6.684;2022-09-02T06:21:06;5.13;;;1.00;;
19339;SDS011;9804;52.350;6.684;2022-09-02T06:23:34;3.38;;;0.80;;
19339;SDS011;9804;52.350;6.684;2022-09-02T06:26:03;2.58;;;0.90;;
19339;SDS011;9804;52.350;6.684;2022-09-02T06:28:29;2.97;;;1.02;;
19339;SDS011;9804;52.350;6.684;2022-09-02T06:30:54;4.35;;;1.17;;
19339;SDS011;9804;52.350;6.684;2022-09-02T06:33:19;2.30;;;1.10;;
19339;SDS011;9804;52.350;6.684;2022-09-02T06:35:45;5.80;;;1.00;;
19339;SDS011;9804;52.350;6.684;2022-09-02T06:38:11;5.57;;;1.00;;
19339;SDS011;9804;52.350;6.684;2022-09-02T06:40:54;4.38;;;0.98;;
19339;SDS011;9804;52.350;6.684;2022-09-02T06:43:19;5.22;;;1.10;;
19339;SDS011;9804;52.350;6.684;2022-09-02T06:45:45;3.20;;;1.17;;
19339;SDS011;9804;52.350;6.684;2022-09-02T06:48:11;1.95;;;1.00;;
19339;SDS011;9804;52.350;6.684;2022-09-02T06:50:41;3.50;;;0.90;;
19339;SDS011;9804;52.350;6.684;2022-09-02T06:53:08;2.33;;;0.95;;
19339;SDS011;9804;52.350;6.684;2022-09-02T06:55:35;3.10;;;1.10;;
19339;SDS011;9804;52.350;6.684;2022-09-02T06:58:01;1.83;;;0.95;;
19339;SDS011;9804;52.350;6.684;2022-09-02T07:00:27;4.85;;;1.48;;
19339;SDS011;9804;52.350;6.684;2022-09-02T07:02:52;2.58;;;1.00;;
19339;SDS011;9804;52.350;6.684;2022-09-02T07:05:38;3.17;;;0.90;;
19339;SDS011;9804;52.350;6.684;2022-09-02T07:08:04;3.80;;;1.20;;
19339;SDS011;9804;52.350;6.684;2022-09-02T07:10:29;3.45;;;1.00;;
19339;SDS011;9804;52.350;6.684;2022-09-02T07:12:55;3.95;;;0.90;;
19339;SDS011;9804;52.350;6.684;2022-09-02T07:15:21;1.10;;;1.00;;
19339;SDS011;9804;52.350;6.684;2022-09-02T07:17:47;2.85;;;0.93;;
19339;SDS011;9804;52.350;6.684;2022-09-02T07:20:13;6.78;;;1.10;;
19339;SDS011;9804;52.350;6.684;2022-09-02T07:22:39;4.45;;;0.90;;
19339;SDS011;9804;52.350;6.684;2022-09-02T07:25:04;5.30;;;1.02;;
19339;SDS011;9804;52.350;6.684;2022-09-02T07:27:30;1.38;;;0.80;;
19339;SDS011;9804;52.350;6.684;2022-09-02T07:29:56;3.58;;;0.85;;
19339;SDS011;9804;52.350;6.684;2022-09-02T07:32:21;2.53;;;1.00;;
19339;SDS011;9804;52.350;6.684;2022-09-02T07:34:47;4.30;;;1.05;;
19339;SDS011;9804;52.350;6.684;2022-09-02T07:37:12;5.95;;;1.05;;
19339;SDS011;9804;52.350;6.684;2022-09-02T07:39:38;3.72;;;1.00;;
19339;SDS011;9804;52.350;6.684;2022-09-02T07:42:03;3.22;;;1.00;;
19339;SDS011;9804;52.350;6.684;2022-09-02T07:44:29;3.67;;;0.80;;
19339;SDS011;9804;52.350;6.684;2022-09-02T07:46:56;1.90;;;1.08;;
19339;SDS011;9804;52.350;6.684;2022-09-02T07:49:21;1.98;;;0.90;;
19339;SDS011;9804;52.350;6.684;2022-09-02T07:51:48;3.58;;;0.90;;
19339;SDS011;9804;52.350;6.684;2022-09-02T07:54:15;4.40;;;1.38;;
19339;SDS011;9804;52.350;6.684;2022-09-02T07:56:42;2.85;;;1.08;;
19339;SDS011;9804;52.350;6.684;2022-09-02T07:59:08;2.33;;;0.85;;
19339;SDS011;9804;52.350;6.684;2022-09-02T08:01:35;3.55;;;0.90;;
19339;SDS011;9804;52.350;6.684;2022-09-02T08:04:02;3.47;;;0.90;;
19339;SDS011;9804;52.350;6.684;2022-09-02T08:06:28;2.97;;;1.08;;
19339;SDS011;9804;52.350;6.684;2022-09-02T08:08:54;4.70;;;1.10;;
19339;SDS011;9804;52.350;6.684;2022-09-02T08:11:20;4.57;;;1.20;;
19339;SDS011;9804;52.350;6.684;2022-09-02T08:13:47;1.25;;;0.77;;
19339;SDS011;9804;52.350;6.684;2022-09-02T08:16:13;4.22;;;1.05;;
19339;SDS011;9804;52.350;6.684;2022-09-02T08:18:38;5.35;;;1.00;;
19339;SDS011;9804;52.350;6.684;2022-09-02T08:21:04;6.45;;;1.27;;
19339;SDS011;9804;52.350;6.684;2022-09-02T08:23:29;1.90;;;0.70;;
19339;SDS011;9804;52.350;6.684;2022-09-02T08:25:57;7.75;;;1.13;;
19339;SDS011;9804;52.350;6.684;2022-09-02T08:28:23;3.88;;;1.10;;
19339;SDS011;9804;52.350;6.684;2022-09-02T08:30:49;2.97;;;1.20;;
19339;SDS011;9804;52.350;6.684;2022-09-02T08:33:15;1.98;;;1.02;;
19339;SDS011;9804;52.350;6.684;2022-09-02T08:35:40;7.18;;;1.30;;
19339;SDS011;9804;52.350;6.684;2022-09-02T08:38:06;5.15;;;1.30;;
19339;SDS011;9804;52.350;6.684;2022-09-02T08:40:35;3.28;;;0.95;;
19339;SDS011;9804;52.350;6.684;2022-09-02T08:43:04;2.92;;;1.30;;
19339;SDS011;9804;52.350;6.684;2022-09-02T08:45:45;3.97;;;0.93;;
19339;SDS011;9804;52.350;6.684;2022-09-02T08:48:19;9.35;;;1.08;;
19339;SDS011;9804;52.350;6.684;2022-09-02T08:50:59;3.20;;;1.20;;
19339;SDS011;9804;52.350;6.684;2022-09-02T08:53:31;2.25;;;1.00;;
19339;SDS011;9804;52.350;6.684;2022-09-02T08:56:04;2.20;;;0.93;;
19339;SDS011;9804;52.350;6.684;2022-09-02T08:58:36;6.15;;;1.10;;
19339;SDS011;9804;52.350;6.684;2022-09-02T09:01:11;2.22;;;0.88;;
19339;SDS011;9804;52.350;6.684;2022-09-02T09:09:35;6.32;;;1.08;;
19339;SDS011;9804;52.350;6.684;2022-09-02T09:12:09;2.40;;;1.23;;
19339;SDS011;9804;52.350;6.684;2022-09-02T09:14:43;5.20;;;1.00;;
19339;SDS011;9804;52.350;6.684;2022-09-02T09:20:02;2.92;;;1.13;;
19339;SDS011;9804;52.350;6.684;2022-09-02T09:22:33;3.80;;;1.20;;
19339;SDS011;9804;52.350;6.684;2022-09-02T09:25:01;2.85;;;1.05;;
19339;SDS011;9804;52.350;6.684;2022-09-02T09:27:39;4.10;;;1.15;;
19339;SDS011;9804;52.350;6.684;2022-09-02T09:30:05;3.65;;;1.23;;
19339;SDS011;9804;52.350;6.684;2022-09-02T09:32:37;4.10;;;1.25;;
19339;SDS011;9804;52.350;6.684;2022-09-02T09:35:12;1.83;;;0.80;;
19339;SDS011;9804;52.350;6.684;2022-09-02T09:45:42;4.15;;;0.98;;
19339;SDS011;9804;52.350;6.684;2022-09-02T09:50:43;2.53;;;1.05;;
19339;SDS011;9804;52.350;6.684;2022-09-02T09:53:19;3.65;;;1.10;;
19339;SDS011;9804;52.350;6.684;2022-09-02T09:56:00;6.05;;;1.30;;
19339;SDS011;9804;52.350;6.684;2022-09-02T10:01:20;1.98;;;1.10;;
19339;SDS011;9804;52.350;6.684;2022-09-02T10:03:49;4.40;;;0.98;;
19339;SDS011;9804;52.350;6.684;2022-09-02T10:11:52;3.83;;;1.23;;
19339;SDS011;9804;52.350;6.684;2022-09-02T10:14:19;7.40;;;1.27;;
19339;SDS011;9804;52.350;6.684;2022-09-02T10:16:48;3.92;;;1.20;;
19339;SDS011;9804;52.350;6.684;2022-09-02T10:19:39;5.28;;;1.33;;
19339;SDS011;9804;52.350;6.684;2022-09-02T10:22:13;1.80;;;1.00;;
19339;SDS011;9804;52.350;6.684;2022-09-02T10:33:18;4.97;;;1.05;;
19339;SDS011;9804;52.350;6.684;2022-09-02T10:35:54;3.65;;;1.17;;
19339;SDS011;9804;52.350;6.684;2022-09-02T10:38:32;2.72;;;1.00;;
19339;SDS011;9804;52.350;6.684;2022-09-02T10:44:07;3.05;;;1.10;;
19339;SDS011;9804;52.350;6.684;2022-09-02T10:46:58;3.00;;;1.00;;
19339;SDS011;9804;52.350;6.684;2022-09-02T10:49:43;3.25;;;1.17;;
19339;SDS011;9804;52.350;6.684;2022-09-02T10:57:49;2.45;;;1.30;;
19339;SDS011;9804;52.350;6.684;2022-09-02T11:00:39;5.13;;;1.30;;
19339;SDS011;9804;52.350;6.684;2022-09-02T11:03:12;5.38;;;1.10;;
19339;SDS011;9804;52.350;6.684;2022-09-02T11:05:49;2.95;;;1.30;;
19339;SDS011;9804;52.350;6.684;2022-09-02T11:08:23;3.67;;;1.13;;
19339;SDS011;9804;52.350;6.684;2022-09-02T11:16:21;2.10;;;0.90;;
19339;SDS011;9804;52.350;6.684;2022-09-02T11:19:11;2.85;;;1.20;;
19339;SDS011;9804;52.350;6.684;2022-09-02T11:21:56;1.60;;;1.05;;
19339;SDS011;9804;52.350;6.684;2022-09-02T11:24:32;2.42;;;1.10;;
19339;SDS011;9804;52.350;6.684;2022-09-02T11:27:11;4.05;;;1.50;;
19339;SDS011;9804;52.350;6.684;2022-09-02T11:29:55;4.45;;;1.40;;
19339;SDS011;9804;52.350;6.684;2022-09-02T11:32:43;2.67;;;1.08;;
19339;SDS011;9804;52.350;6.684;2022-09-02T11:35:11;4.35;;;1.17;;
19339;SDS011;9804;52.350;6.684;2022-09-02T11:37:46;2.33;;;1.00;;
19339;SDS011;9804;52.350;6.684;2022-09-02T11:40:38;3.28;;;1.13;;
19339;SDS011;9804;52.350;6.684;2022-09-02T11:43:19;3.63;;;1.13;;
19339;SDS011;9804;52.350;6.684;2022-09-02T11:54:39;2.60;;;1.00;;
19339;SDS011;9804;52.350;6.684;2022-09-02T11:57:10;2.85;;;1.25;;
19339;SDS011;9804;52.350;6.684;2022-09-02T12:08:29;1.52;;;1.10;;
19339;SDS011;9804;52.350;6.684;2022-09-02T12:13:30;1.10;;;1.00;;
19339;SDS011;9804;52.350;6.684;2022-09-02T12:21:17;2.35;;;1.17;;
19339;SDS011;9804;52.350;6.684;2022-09-02T12:26:12;1.70;;;1.08;;
19339;SDS011;9804;52.350;6.684;2022-09-02T12:28:39;1.70;;;1.10;;
19339;SDS011;9804;52.350;6.684;2022-09-02T12:31:10;2.78;;;1.00;;
19339;SDS011;9804;52.350;6.684;2022-09-02T12:33:39;3.58;;;1.10;;
19339;SDS011;9804;52.350;6.684;2022-09-02T12:47:13;1.10;;;1.00;;
19339;SDS011;9804;52.350;6.684;2022-09-02T12:50:01;2.03;;;1.52;;
19339;SDS011;9804;52.350;6.684;2022-09-02T12:52:40;1.60;;;1.50;;
19339;SDS011;9804;52.350;6.684;2022-09-02T12:55:09;1.65;;;1.10;;
19339;SDS011;9804;52.350;6.684;2022-09-02T12:57:41;3.83;;;1.45;;
19339;SDS011;9804;52.350;6.684;2022-09-02T13:00:13;2.90;;;1.10;;
19339;SDS011;9804;52.350;6.684;2022-09-02T13:05:55;2.03;;;1.00;;
19339;SDS011;9804;52.350;6.684;2022-09-02T13:17:20;4.20;;;1.33;;
19339;SDS011;9804;52.350;6.684;2022-09-02T13:25:53;3.17;;;1.40;;
19339;SDS011;9804;52.350;6.684;2022-09-02T13:31:35;3.42;;;1.40;;
19339;SDS011;9804;52.350;6.684;2022-09-02T13:34:02;1.88;;;1.30;;
19339;SDS011;9804;52.350;6.684;2022-09-02T13:36:31;3.30;;;1.23;;
19339;SDS011;9804;52.350;6.684;2022-09-02T13:41:54;2.58;;;1.40;;
19339;SDS011;9804;52.350;6.684;2022-09-02T13:44:26;2.22;;;1.10;;
19339;SDS011;9804;52.350;6.684;2022-09-02T13:47:12;3.10;;;1.23;;
19339;SDS011;9804;52.350;6.684;2022-09-02T13:49:40;1.85;;;1.33;;
19339;SDS011;9804;52.350;6.684;2022-09-02T13:52:10;3.10;;;1.20;;
19339;SDS011;9804;52.350;6.684;2022-09-02T13:54:39;1.75;;;1.13;;
19339;SDS011;9804;52.350;6.684;2022-09-02T13:57:09;3.75;;;1.40;;
19339;SDS011;9804;52.350;6.684;2022-09-02T13:59:38;1.30;;;1.13;;
19339;SDS011;9804;52.350;6.684;2022-09-02T14:02:19;2.45;;;1.52;;
19339;SDS011;9804;52.350;6.684;2022-09-02T14:05:06;3.75;;;1.40;;
19339;SDS011;9804;52.350;6.684;2022-09-02T14:07:42;2.03;;;1.20;;
19339;SDS011;9804;52.350;6.684;2022-09-02T14:10:11;4.10;;;1.33;;
19339;SDS011;9804;52.350;6.684;2022-09-02T14:12:40;1.77;;;1.48;;
19339;SDS011;9804;52.350;6.684;2022-09-02T14:15:09;2.13;;;1.33;;
19339;SDS011;9804;52.350;6.684;2022-09-02T14:17:37;3.10;;;1.35;;
19339;SDS011;9804;52.350;6.684;2022-09-02T14:22:51;4.45;;;1.38;;
19339;SDS011;9804;52.350;6.684;2022-09-02T14:25:19;3.83;;;1.40;;
19339;SDS011;9804;52.350;6.684;2022-09-02T14:27:51;1.70;;;1.20;;
19339;SDS011;9804;52.350;6.684;2022-09-02T14:30:34;1.45;;;1.35;;
19339;SDS011;9804;52.350;6.684;2022-09-02T14:33:14;1.90;;;1.55;;
19339;SDS011;9804;52.350;6.684;2022-09-02T14:35:40;1.85;;;1.10;;
19339;SDS011;9804;52.350;6.684;2022-09-02T14:38:06;1.50;;;1.30;;
19339;SDS011;9804;52.350;6.684;2022-09-02T14:40:32;2.75;;;1.35;;
19339;SDS011;9804;52.350;6.684;2022-09-02T14:43:01;3.75;;;1.35;;
19339;SDS011;9804;52.350;6.684;2022-09-02T14:45:30;3.03;;;1.38;;
19339;SDS011;9804;52.350;6.684;2022-09-02T14:48:01;4.97;;;1.30;;
19339;SDS011;9804;52.350;6.684;2022-09-02T14:50:35;1.27;;;1.17;;
19339;SDS011;9804;52.350;6.684;2022-09-02T14:53:05;4.63;;;1.20;;
19339;SDS011;9804;52.350;6.684;2022-09-02T14:55:52;2.22;;;1.30;;
19339;SDS011;9804;52.350;6.684;2022-09-02T14:58:19;1.02;;;1.00;;
19339;SDS011;9804;52.350;6.684;2022-09-02T15:00:46;5.40;;;1.50;;
19339;SDS011;9804;52.350;6.684;2022-09-02T15:03:18;4.68;;;1.40;;
19339;SDS011;9804;52.350;6.684;2022-09-02T15:05:44;4.47;;;1.30;;
19339;SDS011;9804;52.350;6.684;2022-09-02T15:08:10;3.50;;;1.30;;
19339;SDS011;9804;52.350;6.684;2022-09-02T15:10:37;2.00;;;1.55;;
19339;SDS011;9804;52.350;6.684;2022-09-02T15:13:04;3.33;;;1.17;;
19339;SDS011;9804;52.350;6.684;2022-09-02T15:15:31;2.80;;;1.30;;
19339;SDS011;9804;52.350;6.684;2022-09-02T15:17:57;3.35;;;1.10;;
19339;SDS011;9804;52.350;6.684;2022-09-02T15:20:22;4.68;;;2.00;;
19339;SDS011;9804;52.350;6.684;2022-09-02T15:22:48;5.07;;;2.15;;
19339;SDS011;9804;52.350;6.684;2022-09-02T15:25:16;1.40;;;1.30;;
19339;SDS011;9804;52.350;6.684;2022-09-02T15:27:41;4.07;;;1.30;;
19339;SDS011;9804;52.350;6.684;2022-09-02T15:30:07;1.25;;;1.08;;
19339;SDS011;9804;52.350;6.684;2022-09-02T15:32:33;2.58;;;1.20;;
19339;SDS011;9804;52.350;6.684;2022-09-02T15:34:59;15.13;;;3.65;;
19339;SDS011;9804;52.350;6.684;2022-09-02T15:37:25;2.92;;;1.35;;
19339;SDS011;9804;52.350;6.684;2022-09-02T15:39:51;6.18;;;1.25;;
19339;SDS011;9804;52.350;6.684;2022-09-02T15:42:16;4.03;;;1.92;;
19339;SDS011;9804;52.350;6.684;2022-09-02T15:44:42;3.63;;;1.70;;
19339;SDS011;9804;52.350;6.684;2022-09-02T15:47:07;3.22;;;1.20;;
19339;SDS011;9804;52.350;6.684;2022-09-02T15:49:33;2.33;;;1.40;;
19339;SDS011;9804;52.350;6.684;2022-09-02T15:51:58;2.75;;;1.48;;
19339;SDS011;9804;52.350;6.684;2022-09-02T15:54:24;2.35;;;1.33;;
19339;SDS011;9804;52.350;6.684;2022-09-02T15:56:52;3.40;;;1.30;;
19339;SDS011;9804;52.350;6.684;2022-09-02T15:59:19;1.85;;;1.25;;
19339;SDS011;9804;52.350;6.684;2022-09-02T16:01:46;4.63;;;1.30;;
19339;SDS011;9804;52.350;6.684;2022-09-02T16:04:13;2.45;;;1.38;;
19339;SDS011;9804;52.350;6.684;2022-09-02T16:06:40;3.33;;;1.10;;
19339;SDS011;9804;52.350;6.684;2022-09-02T16:09:08;1.60;;;1.48;;
19339;SDS011;9804;52.350;6.684;2022-09-02T16:11:42;4.47;;;1.42;;
19339;SDS011;9804;52.350;6.684;2022-09-02T16:14:09;1.75;;;1.00;;
19339;SDS011;9804;52.350;6.684;2022-09-02T16:16:35;1.25;;;1.15;;
19339;SDS011;9804;52.350;6.684;2022-09-02T16:19:01;4.28;;;1.35;;
19339;SDS011;9804;52.350;6.684;2022-09-02T16:21:28;2.30;;;1.40;;
19339;SDS011;9804;52.350;6.684;2022-09-02T16:23:53;2.33;;;1.45;;
19339;SDS011;9804;52.350;6.684;2022-09-02T16:28:48;3.65;;;1.27;;
19339;SDS011;9804;52.350;6.684;2022-09-02T16:31:16;2.78;;;1.38;;
19339;SDS011;9804;52.350;6.684;2022-09-02T16:33:43;5.25;;;1.40;;
19339;SDS011;9804;52.350;6.684;2022-09-02T16:36:14;3.13;;;1.25;;
19339;SDS011;9804;52.350;6.684;2022-09-02T16:38:40;5.07;;;0.95;;
19339;SDS011;9804;52.350;6.684;2022-09-02T16:41:05;2.25;;;1.35;;
19339;SDS011;9804;52.350;6.684;2022-09-02T16:43:31;4.68;;;1.08;;
19339;SDS011;9804;52.350;6.684;2022-09-02T16:45:57;2.50;;;1.30;;
19339;SDS011;9804;52.350;6.684;2022-09-02T16:48:28;1.15;;;1.05;;
19339;SDS011;9804;52.350;6.684;2022-09-02T16:50:54;3.78;;;1.40;;
19339;SDS011;9804;52.350;6.684;2022-09-02T16:53:24;2.50;;;1.17;;
19339;SDS011;9804;52.350;6.684;2022-09-02T16:55:50;4.25;;;1.42;;
19339;SDS011;9804;52.350;6.684;2022-09-02T16:58:15;2.70;;;1.55;;
19339;SDS011;9804;52.350;6.684;2022-09-02T17:00:40;4.07;;;1.30;;
19339;SDS011;9804;52.350;6.684;2022-09-02T17:03:06;3.08;;;1.35;;
19339;SDS011;9804;52.350;6.684;2022-09-02T17:05:34;4.28;;;1.33;;
19339;SDS011;9804;52.350;6.684;2022-09-02T17:07:59;5.32;;;1.30;;
19339;SDS011;9804;52.350;6.684;2022-09-02T17:10:26;2.38;;;1.50;;